Time;durP1;ratioP1;P1;durP2;ratioP2;P2;SDS_P1;SDS_P2;PMS_P1;PMS_P2;Temp;Humidity;BMP_temperature;BMP_pressure;BME280_temperature;BME280_humidity;BME280_pressure;Samples;Min_cycle;Max_cycle;Signal;HPM_P1;HPM_P2
2022/03/31 00:00:35;;;;;;;11.90;5.03;;;;;;;17.63;36.52;93472.75;5054170;28;20183;-75
2022/03/31 00:03:04;;;;;;;7.90;4.83;;;;;;;17.38;36.75;93484.97;5053127;28;20210;-75
2022/03/31 00:05:30;;;;;;;11.17;4.67;;;;;;;17.79;35.75;93506.06;5049533;28;20466;-75
2022/03/31 00:08:01;;;;;;;8.93;4.00;;;;;;;17.63;36.51;93470.91;5043882;28;20474;-76
2022/03/31 00:10:30;;;;;;;8.50;5.60;;;;;;;16.99;37.27;93464.31;5048419;28;20430;-76
2022/03/31 00:12:58;;;;;;;9.50;5.90;;;;;;;17.29;36.82;93450.31;5064600;28;20417;-75
2022/03/31 00:15:25;;;;;;;8.80;5.23;;;;;;;17.36;36.73;93458.78;5050119;28;20424;-76
2022/03/31 00:17:51;;;;;;;12.17;5.23;;;;;;;17.68;36.18;93481.50;5028460;28;20411;-76
2022/03/31 00:33:44;;;;;;;9.97;4.40;;;;;;;17.83;36.62;93443.63;5063744;28;20432;-76
2022/03/31 00:36:11;;;;;;;16.70;4.60;;;;;;;18.15;36.50;93416.00;5047027;28;20406;-76
2022/03/31 00:38:37;;;;;;;11.07;4.00;;;;;;;18.20;37.17;93415.97;5047139;28;20185;-75
2022/03/31 00:41:02;;;;;;;20.33;5.30;;;;;;;18.21;36.47;93432.66;5029573;28;20451;-76
2022/03/31 00:43:28;;;;;;;15.03;4.87;;;;;;;18.24;36.38;93421.53;5050438;28;20187;-75
2022/03/31 00:45:56;;;;;;;13.10;6.23;;;;;;;18.36;36.31;93429.13;5042820;28;20235;-75
2022/03/31 00:48:22;;;;;;;8.90;4.10;;;;;;;17.91;37.35;93421.13;5046919;28;20180;-76
2022/03/31 00:50:49;;;;;;;10.23;4.10;;;;;;;18.13;36.77;93434.78;5060596;28;20893;-75
2022/03/31 00:53:16;;;;;;;16.63;6.67;;;;;;;18.32;36.02;93437.63;5046806;28;20466;-76
2022/03/31 00:55:44;;;;;;;15.93;6.43;;;;;;;17.82;36.60;93442.03;5042638;28;20766;-76
2022/03/31 00:58:11;;;;;;;13.03;5.77;;;;;;;18.36;35.52;93429.91;5052052;28;20508;-76
2022/03/31 01:00:36;;;;;;;11.33;4.83;;;;;;;18.25;35.80;93438.97;5050461;28;20929;-75
2022/03/31 01:03:03;;;;;;;13.10;5.50;;;;;;;18.31;36.25;93432.63;5057377;28;20520;-76
2022/03/31 01:05:29;;;;;;;11.30;6.27;;;;;;;18.41;36.24;93431.78;5064483;28;20293;-75
2022/03/31 01:07:55;;;;;;;11.77;4.20;;;;;;;17.85;37.32;93425.66;5054546;28;20425;-75
2022/03/31 01:10:21;;;;;;;19.00;5.37;;;;;;;18.24;37.03;93411.72;5052696;28;20505;-75
2022/03/31 01:12:47;;;;;;;9.60;5.00;;;;;;;18.12;37.03;93404.09;5042044;28;20952;-76
2022/03/31 01:15:18;;;;;;;12.23;4.07;;;;;;;18.54;36.66;93394.84;5046489;28;20238;-76
2022/03/31 01:17:46;;;;;;;18.20;6.63;;;;;;;18.61;36.42;93425.56;5028888;28;20185;-75
2022/03/31 01:20:16;;;;;;;11.53;4.13;;;;;;;18.54;37.10;93399.38;5028172;28;20426;-76
2022/03/31 01:22:43;;;;;;;12.27;5.53;;;;;;;17.70;38.12;93394.69;5014118;28;20464;-75
2022/03/31 01:25:10;;;;;;;10.40;3.90;;;;;;;18.26;37.40;93414.09;5059187;28;20488;-75
2022/03/31 01:27:38;;;;;;;9.70;4.70;;;;;;;17.98;37.53;93418.97;5047048;28;20429;-76
2022/03/31 01:30:15;;;;;;;14.97;5.23;;;;;;;18.17;37.88;93403.25;5028766;28;20437;-76
2022/03/31 01:32:43;;;;;;;12.50;6.30;;;;;;;18.09;38.23;93406.50;5039977;28;20481;-75
2022/03/31 01:35:09;;;;;;;16.27;4.97;;;;;;;18.30;38.43;93404.53;5051267;28;20424;-75
2022/03/31 01:37:34;;;;;;;6.70;3.30;;;;;;;18.14;39.54;93415.19;5053183;28;20423;-75
2022/03/31 01:40:00;;;;;;;13.80;5.03;;;;;;;18.47;37.88;93410.25;5046066;28;20445;-75
2022/03/31 01:42:30;;;;;;;10.60;4.57;;;;;;;18.95;36.07;93388.50;5050208;28;20656;-75
2022/03/31 01:44:57;;;;;;;13.23;4.70;;;;;;;18.13;37.19;93399.59;5047950;28;20469;-75
2022/03/31 01:47:22;;;;;;;12.53;5.23;;;;;;;18.01;37.16;93426.38;5066236;28;20416;-75
2022/03/31 01:49:51;;;;;;;12.67;5.60;;;;;;;18.23;37.07;93420.75;5037563;28;20453;-75
2022/03/31 01:52:17;;;;;;;10.70;4.97;;;;;;;17.82;37.79;93415.56;5049160;28;20449;-75
2022/03/31 01:54:43;;;;;;;12.90;5.30;;;;;;;17.82;37.97;93414.78;5044902;28;20481;-76
2022/03/31 01:57:09;;;;;;;16.27;5.70;;;;;;;18.30;36.82;93431.03;5043477;28;20433;-75
2022/03/31 01:59:36;;;;;;;14.00;6.27;;;;;;;18.09;37.13;93412.56;5056971;28;20207;-76
2022/03/31 02:02:02;;;;;;;11.20;6.40;;;;;;;17.94;37.32;93407.34;5040839;28;20212;-75
2022/03/31 02:04:28;;;;;;;10.83;4.37;;;;;;;17.46;38.66;93415.66;5045531;28;20911;-75
2022/03/31 02:06:54;;;;;;;21.90;6.60;;;;;;;17.81;38.03;93398.09;5059404;28;20444;-76
2022/03/31 02:09:20;;;;;;;13.27;4.70;;;;;;;17.98;38.85;93391.72;5027697;28;20171;-75
2022/03/31 02:11:46;;;;;;;13.17;5.20;;;;;;;18.08;38.16;93411.00;5045268;28;20179;-75
2022/03/31 02:14:13;;;;;;;11.83;4.57;;;;;;;18.26;38.62;93398.19;5059129;28;20780;-76
2022/03/31 02:16:38;;;;;;;16.77;4.47;;;;;;;18.21;38.84;93395.56;5058217;28;20182;-75
2022/03/31 02:19:04;;;;;;;19.70;5.00;;;;;;;18.40;38.97;93367.41;5060756;28;20859;-75
2022/03/31 02:21:30;;;;;;;12.10;3.43;;;;;;;18.28;39.49;93396.84;5024353;28;20211;-75
2022/03/31 02:23:56;;;;;;;13.87;4.53;;;;;;;18.42;39.46;93362.63;5043543;28;20207;-75
2022/03/31 02:26:22;;;;;;;17.10;5.83;;;;;;;18.64;38.72;93369.38;5028148;28;20176;-76
2022/03/31 02:28:47;;;;;;;9.20;4.17;;;;;;;18.61;38.69;93388.44;5062072;28;20445;-76
2022/03/31 02:31:13;;;;;;;16.90;6.07;;;;;;;18.41;37.62;93363.69;5055102;28;20198;-76
2022/03/31 02:33:38;;;;;;;15.40;5.70;;;;;;;17.19;39.51;93360.44;5061743;28;20167;-76
2022/03/31 02:36:07;;;;;;;13.80;5.20;;;;;;;17.90;38.36;93382.47;5047689;28;20178;-76
2022/03/31 02:38:34;;;;;;;18.30;5.70;;;;;;;17.94;38.31;93386.16;5044783;28;20186;-76
2022/03/31 02:41:00;;;;;;;14.40;4.93;;;;;;;18.36;37.99;93376.94;5038843;28;20438;-76
2022/03/31 02:43:25;;;;;;;10.03;5.13;;;;;;;18.36;38.23;93373.53;5059916;28;20488;-76
2022/03/31 02:45:51;;;;;;;17.60;5.57;;;;;;;18.38;37.22;93374.81;5065191;28;20456;-76
2022/03/31 02:48:16;;;;;;;9.70;5.10;;;;;;;18.09;37.22;93367.56;5028421;28;20659;-75
2022/03/31 02:50:41;;;;;;;15.23;5.60;;;;;;;18.03;39.77;93344.84;5051414;28;20257;-75
2022/03/31 02:55:51;;;;;;;14.30;6.10;;;;;;;18.09;37.48;93346.38;5035039;28;20210;-75
2022/03/31 02:58:17;;;;;;;14.43;5.87;;;;;;;18.01;37.43;93381.38;5061750;28;20460;-76
2022/03/31 03:00:43;;;;;;;10.27;4.83;;;;;;;17.92;37.53;93375.84;5062682;28;20202;-76
2022/03/31 03:03:11;;;;;;;10.83;5.63;;;;;;;17.85;36.56;93366.63;5049139;28;20424;-76
2022/03/31 03:05:37;;;;;;;12.90;5.80;;;;;;;16.95;38.53;93368.91;5045701;28;20215;-76
2022/03/31 03:08:03;;;;;;;12.00;5.43;;;;;;;17.99;36.87;93380.84;5055037;28;20521;-75
2022/03/31 03:10:29;;;;;;;10.10;6.20;;;;;;;17.41;37.90;93368.03;5054175;28;20436;-76
2022/03/31 03:12:56;;;;;;;14.23;5.70;;;;;;;17.17;38.13;93378.41;5068876;28;20420;-76
2022/03/31 03:15:22;;;;;;;8.17;5.40;;;;;;;17.16;38.48;93387.41;5050406;28;20467;-75
2022/03/31 03:17:48;;;;;;;9.73;5.57;;;;;;;17.03;38.38;93378.16;5031256;28;20539;-76
2022/03/31 03:20:15;;;;;;;17.00;6.40;;;;;;;16.82;38.62;93387.13;5048945;28;20210;-76
2022/03/31 03:22:49;;;;;;;7.60;5.17;;;;;;;15.93;40.39;93389.84;5054954;28;20234;-75
2022/03/31 03:25:17;;;;;;;9.87;4.03;;;;;;;16.31;39.97;93377.28;5052803;28;21008;-75
2022/03/31 03:27:44;;;;;;;12.30;6.23;;;;;;;16.61;39.73;93373.13;5055296;28;20439;-75
2022/03/31 03:30:10;;;;;;;13.30;5.40;;;;;;;16.59;39.29;93366.22;5056477;28;20462;-76
2022/03/31 03:32:37;;;;;;;8.07;5.00;;;;;;;15.83;40.76;93377.41;5050236;28;20999;-75
2022/03/31 03:35:08;;;;;;;12.80;5.63;;;;;;;16.06;40.69;93341.88;5038549;28;20437;-75
2022/03/31 03:37:34;;;;;;;17.93;6.73;;;;;;;15.91;40.87;93357.66;5053309;28;20436;-75
2022/03/31 03:40:03;;;;;;;9.47;6.60;;;;;;;16.03;40.96;93354.78;5030757;28;20440;-76
2022/03/31 03:42:29;;;;;;;11.23;5.70;;;;;;;16.44;39.81;93366.22;5064942;28;20424;-75
2022/03/31 03:44:55;;;;;;;12.00;6.63;;;;;;;16.40;39.92;93355.38;5040657;28;20465;-76
2022/03/31 03:47:21;;;;;;;11.73;6.53;;;;;;;16.79;39.27;93357.53;5068294;28;20508;-76
2022/03/31 03:49:48;;;;;;;16.10;6.20;;;;;;;16.91;38.79;93344.06;5042086;28;20433;-76
2022/03/31 03:52:13;;;;;;;12.03;5.90;;;;;;;16.67;39.21;93358.84;5044079;28;20209;-75
2022/03/31 03:54:39;;;;;;;11.60;6.57;;;;;;;16.47;39.75;93354.34;5037194;28;20461;-76
2022/03/31 03:57:05;;;;;;;15.07;6.27;;;;;;;16.91;39.49;93359.94;5035474;28;20187;-76
2022/03/31 03:59:31;;;;;;;12.33;6.67;;;;;;;16.83;39.27;93351.72;5053877;28;20420;-76
2022/03/31 04:01:56;;;;;;;12.47;6.30;;;;;;;15.66;41.69;93356.47;5036948;28;20422;-76
2022/03/31 04:04:22;;;;;;;12.40;6.60;;;;;;;15.77;41.28;93363.41;5035071;28;20286;-76
2022/03/31 04:06:47;;;;;;;10.80;6.70;;;;;;;15.61;41.80;93359.91;5047481;28;20241;-76
2022/03/31 04:09:13;;;;;;;13.03;6.67;;;;;;;15.93;40.77;93361.59;5038301;28;20305;-76
2022/03/31 04:11:38;;;;;;;11.00;6.67;;;;;;;15.73;41.55;93366.81;5055061;28;20185;-76
2022/03/31 04:14:04;;;;;;;7.60;4.33;;;;;;;14.95;43.32;93347.16;5054104;28;20183;-76
2022/03/31 04:16:29;;;;;;;10.13;6.23;;;;;;;14.70;43.62;93339.88;5051962;28;20195;-76
2022/03/31 04:18:55;;;;;;;10.10;6.23;;;;;;;15.55;41.96;93370.66;5037305;28;20209;-76
2022/03/31 04:21:20;;;;;;;9.37;6.10;;;;;;;15.99;40.92;93375.59;5054391;28;20178;-77
2022/03/31 04:23:46;;;;;;;10.43;6.60;;;;;;;15.95;41.09;93391.19;5060839;28;20206;-76
2022/03/31 04:26:12;;;;;;;12.40;7.33;;;;;;;16.07;40.77;93372.50;5057209;28;20189;-76
2022/03/31 04:28:37;;;;;;;7.67;5.60;;;;;;;15.99;40.89;93396.72;5047313;28;20217;-76
2022/03/31 04:31:02;;;;;;;10.60;5.97;;;;;;;15.72;41.62;93402.13;5040290;28;20241;-76
2022/03/31 04:33:28;;;;;;;11.97;6.03;;;;;;;15.74;40.95;93410.59;5046845;28;20223;-76
2022/03/31 04:35:55;;;;;;;14.40;7.20;;;;;;;15.75;41.80;93381.34;5057287;28;20182;-75
2022/03/31 04:38:21;;;;;;;15.93;6.63;;;;;;;15.88;42.05;93401.19;5063256;28;20578;-76
2022/03/31 04:40:46;;;;;;;15.73;6.60;;;;;;;15.92;42.20;93385.63;5057226;28;20434;-76
2022/03/31 04:43:13;;;;;;;19.73;8.37;;;;;;;16.22;41.84;93381.47;5044557;28;20201;-76
2022/03/31 04:45:39;;;;;;;24.13;10.33;;;;;;;15.97;42.19;93380.34;5048479;28;20202;-76
2022/03/31 04:48:05;;;;;;;12.60;7.47;;;;;;;15.35;42.95;93363.47;5054971;28;20438;-75
2022/03/31 04:50:30;;;;;;;11.53;7.33;;;;;;;15.68;43.95;93364.91;5040659;28;20596;-76
2022/03/31 04:52:56;;;;;;;15.60;6.03;;;;;;;15.21;44.13;93360.47;5041794;28;20476;-76
2022/03/31 04:55:21;;;;;;;8.93;5.23;;;;;;;15.36;44.96;93394.81;5066244;28;20182;-75
2022/03/31 04:57:47;;;;;;;10.00;7.37;;;;;;;15.24;45.21;93402.13;5057500;28;20170;-76
2022/03/31 05:00:13;;;;;;;7.80;6.00;;;;;;;16.02;43.39;93396.22;5053340;28;20225;-76
2022/03/31 05:02:38;;;;;;;12.57;7.27;;;;;;;15.55;44.23;93374.09;5058503;28;20187;-76
2022/03/31 05:05:05;;;;;;;14.60;6.50;;;;;;;15.76;44.42;93372.38;5045193;28;20476;-75
2022/03/31 05:07:30;;;;;;;16.23;7.23;;;;;;;15.81;45.41;93375.03;5037767;28;20202;-76
2022/03/31 05:09:56;;;;;;;10.77;7.10;;;;;;;15.95;45.83;93382.47;5065409;28;20452;-76
2022/03/31 05:12:21;;;;;;;19.27;8.27;;;;;;;14.89;47.91;93377.13;5046373;28;20187;-76
2022/03/31 05:14:47;;;;;;;12.13;7.57;;;;;;;15.87;45.73;93359.22;5039189;28;20174;-76
2022/03/31 05:17:12;;;;;;;18.80;6.57;;;;;;;15.42;46.33;93364.00;5043608;28;20183;-75
2022/03/31 05:19:38;;;;;;;18.00;8.47;;;;;;;15.94;45.28;93378.25;5057112;28;20270;-76
2022/03/31 05:22:04;;;;;;;15.43;6.87;;;;;;;16.46;43.25;93374.66;5044756;28;20277;-75
2022/03/31 05:24:30;;;;;;;16.27;7.47;;;;;;;16.31;43.50;93409.75;5040054;28;20213;-76
2022/03/31 05:26:56;;;;;;;21.87;7.57;;;;;;;16.32;43.43;93432.47;5064998;28;20531;-76
2022/03/31 05:29:22;;;;;;;12.57;7.40;;;;;;;16.33;43.62;93406.84;5047674;28;20435;-76
2022/03/31 05:31:48;;;;;;;19.93;8.23;;;;;;;16.76;43.68;93410.88;5065517;28;20433;-76
2022/03/31 05:34:14;;;;;;;20.17;8.63;;;;;;;16.41;44.47;93411.66;5065506;28;20413;-76
2022/03/31 05:36:40;;;;;;;12.70;8.43;;;;;;;16.23;44.94;93407.63;5049320;28;20183;-76
2022/03/31 05:39:06;;;;;;;18.97;14.27;;;;;;;16.85;43.76;93413.06;5065592;28;20455;-76
2022/03/31 05:41:32;;;;;;;5.70;4.13;;;;;;;16.18;46.67;93424.25;5062403;28;20189;-76
2022/03/31 05:43:58;;;;;;;13.93;6.93;;;;;;;16.69;46.04;93431.47;5040497;28;20489;-76
2022/03/31 05:46:24;;;;;;;17.00;7.47;;;;;;;16.63;47.30;93421.97;5029443;28;20183;-76
2022/03/31 05:48:50;;;;;;;16.10;6.17;;;;;;;16.39;50.27;93403.19;5048956;28;20424;-75
2022/03/31 05:51:16;;;;;;;13.87;6.13;;;;;;;17.01;48.96;93385.56;5065051;28;20424;-75
2022/03/31 05:53:42;;;;;;;16.07;6.20;;;;;;;16.92;48.77;93380.03;5042712;28;20569;-76
2022/03/31 05:56:07;;;;;;;26.27;7.53;;;;;;;17.43;47.40;93386.28;5046862;28;20182;-76
2022/03/31 05:58:34;;;;;;;19.60;5.83;;;;;;;17.19;47.46;93365.72;5061820;28;20193;-76
2022/03/31 06:00:59;;;;;;;18.50;5.73;;;;;;;17.18;48.07;93382.63;5032848;28;20209;-76
2022/03/31 06:03:25;;;;;;;17.07;6.53;;;;;;;17.73;46.62;93351.81;5053707;28;20529;-76
2022/03/31 06:05:51;;;;;;;18.50;7.73;;;;;;;17.95;45.80;93364.72;5052442;28;20262;-75
2022/03/31 06:08:17;;;;;;;16.40;6.23;;;;;;;18.02;46.19;93345.91;5061990;28;20182;-76
2022/03/31 06:10:44;;;;;;;22.13;7.03;;;;;;;18.22;45.22;93357.44;5064449;28;20863;-76
2022/03/31 06:13:10;;;;;;;19.60;6.70;;;;;;;17.89;45.15;93357.06;5056917;28;20530;-76
2022/03/31 06:15:35;;;;;;;17.67;5.30;;;;;;;18.10;44.63;93347.97;5047130;28;20421;-76
2022/03/31 06:18:02;;;;;;;18.87;6.10;;;;;;;18.28;44.00;93340.47;5044032;28;20170;-76
2022/03/31 06:20:34;;;;;;;17.93;7.20;;;;;;;18.28;44.83;93340.47;5064221;28;20281;-76
2022/03/31 06:23:00;;;;;;;16.47;6.27;;;;;;;18.23;44.33;93361.66;5050105;28;20431;-76
2022/03/31 06:25:26;;;;;;;17.17;5.30;;;;;;;17.63;45.67;93362.44;5065054;28;20468;-76
2022/03/31 06:27:52;;;;;;;17.43;6.03;;;;;;;17.75;46.29;93368.19;5064851;28;20413;-76
2022/03/31 06:30:17;;;;;;;15.93;6.17;;;;;;;17.63;47.28;93369.59;5066922;28;20171;-76
2022/03/31 06:32:43;;;;;;;18.63;6.17;;;;;;;17.84;46.06;93394.13;5042128;28;20243;-76
2022/03/31 06:35:14;;;;;;;19.07;5.47;;;;;;;18.12;45.44;93380.28;5051579;28;20198;-76
2022/03/31 06:37:44;;;;;;;17.37;5.50;;;;;;;18.19;44.91;93389.75;5060812;28;20221;-76
2022/03/31 06:40:12;;;;;;;23.67;5.63;;;;;;;17.75;45.93;93384.06;5068357;28;20445;-76
2022/03/31 06:42:39;;;;;;;17.47;6.50;;;;;;;17.98;46.06;93436.72;5051090;28;20465;-76
2022/03/31 06:45:08;;;;;;;17.27;7.27;;;;;;;17.45;46.77;93403.47;5065633;28;20472;-76
2022/03/31 06:47:35;;;;;;;23.80;7.10;;;;;;;17.89;45.68;93372.94;5049800;28;20417;-75
2022/03/31 06:50:01;;;;;;;19.57;5.93;;;;;;;17.95;44.33;93372.66;5062196;28;20512;-76
2022/03/31 06:52:26;;;;;;;18.30;7.40;;;;;;;17.82;44.74;93377.72;5065935;28;20488;-76
2022/03/31 06:54:52;;;;;;;20.50;8.80;;;;;;;18.24;44.29;93381.81;5041865;28;20215;-75
2022/03/31 06:57:17;;;;;;;24.33;8.27;;;;;;;17.91;43.83;93376.91;5044792;28;20180;-76
2022/03/31 06:59:43;;;;;;;19.03;7.50;;;;;;;18.06;43.88;93378.72;5045561;28;20175;-76
2022/03/31 07:02:09;;;;;;;13.97;7.47;;;;;;;18.06;43.68;93373.41;5068179;28;20194;-76
2022/03/31 07:04:37;;;;;;;23.00;8.10;;;;;;;18.38;43.20;93397.88;5061317;28;20199;-76
2022/03/31 07:07:02;;;;;;;22.50;8.80;;;;;;;18.13;43.60;93383.69;5065102;28;20254;-76
2022/03/31 07:09:28;;;;;;;21.13;8.77;;;;;;;17.49;45.39;93385.22;5059930;28;20496;-76
2022/03/31 07:11:55;;;;;;;28.97;7.90;;;;;;;17.41;45.53;93389.19;5062739;28;20214;-76
2022/03/31 07:14:20;;;;;;;21.53;5.93;;;;;;;18.23;43.06;93374.91;5075522;28;20171;-76
2022/03/31 07:16:46;;;;;;;21.10;6.50;;;;;;;19.02;41.85;93385.53;5063307;28;20435;-76
2022/03/31 07:19:12;;;;;;;18.70;6.50;;;;;;;19.05;41.63;93361.13;5067819;28;20258;-76
2022/03/31 07:21:37;;;;;;;18.23;5.00;;;;;;;18.43;42.55;93331.63;5058026;28;20832;-76
2022/03/31 07:24:03;;;;;;;31.20;8.30;;;;;;;18.80;42.04;93364.72;5059432;28;20207;-76
2022/03/31 07:26:29;;;;;;;21.83;6.80;;;;;;;19.06;40.70;93309.66;5052953;28;20187;-76
2022/03/31 07:28:55;;;;;;;13.80;5.93;;;;;;;18.27;42.87;93336.25;5060167;28;20247;-75
2022/03/31 07:31:23;;;;;;;15.13;4.70;;;;;;;18.69;41.52;93333.03;5040140;28;20418;-76
2022/03/31 07:33:48;;;;;;;19.23;5.37;;;;;;;19.17;40.44;93335.03;5064865;28;20167;-76
2022/03/31 07:36:14;;;;;;;7.10;4.30;;;;;;;19.32;40.26;93363.25;5037364;28;20534;-76
2022/03/31 07:38:40;;;;;;;17.40;6.63;;;;;;;19.53;40.13;93347.91;5067078;28;20162;-76
2022/03/31 07:41:07;;;;;;;22.30;5.60;;;;;;;20.23;38.94;93365.19;5062245;28;20186;-76
2022/03/31 07:43:32;;;;;;;21.33;7.57;;;;;;;20.22;38.61;93345.81;5067159;28;20405;-76
2022/03/31 07:45:58;;;;;;;25.43;7.53;;;;;;;19.57;40.55;93367.50;5039380;28;20480;-76
2022/03/31 07:48:24;;;;;;;31.93;4.10;;;;;;;19.77;39.54;93328.56;5042791;28;20276;-76
2022/03/31 07:50:49;;;;;;;15.00;5.80;;;;;;;19.90;39.31;93333.22;5057675;28;20510;-76
2022/03/31 07:53:17;;;;;;;20.97;4.80;;;;;;;20.02;39.26;93367.31;5061671;28;20226;-76
2022/03/31 07:55:43;;;;;;;22.20;6.00;;;;;;;19.85;39.81;93373.88;5065164;28;20171;-77
2022/03/31 07:58:09;;;;;;;23.87;6.70;;;;;;;19.95;39.62;93383.56;5065304;28;20435;-76
2022/03/31 08:00:35;;;;;;;23.40;5.17;;;;;;;19.45;40.26;93367.13;5041734;28;20465;-76
2022/03/31 08:03:01;;;;;;;25.03;8.40;;;;;;;19.75;40.18;93362.56;5061063;28;20182;-76
2022/03/31 08:05:28;;;;;;;21.30;6.80;;;;;;;20.16;39.52;93351.44;5061592;28;20187;-77
2022/03/31 08:07:54;;;;;;;16.77;7.40;;;;;;;19.83;39.88;93325.56;5064939;28;20424;-76
2022/03/31 08:10:21;;;;;;;22.53;7.37;;;;;;;19.49;41.00;93338.94;5048721;28;20453;-76
2022/03/31 08:12:47;;;;;;;98.73;15.17;;;;;;;19.37;40.91;93331.38;5061919;28;20425;-76
2022/03/31 08:15:16;;;;;;;63.00;9.00;;;;;;;20.25;38.94;93317.84;5045579;28;20452;-76
2022/03/31 08:17:46;;;;;;;25.90;5.57;;;;;;;20.32;38.79;93344.88;5046008;28;20182;-76
2022/03/31 08:20:13;;;;;;;51.63;8.10;;;;;;;20.66;37.73;93346.53;5063741;28;20915;-76
2022/03/31 08:22:39;;;;;;;22.20;5.47;;;;;;;21.44;36.46;93330.91;5057499;28;20457;-77
2022/03/31 08:25:06;;;;;;;19.03;5.17;;;;;;;22.10;34.95;93310.16;5066160;28;20457;-76
2022/03/31 08:27:35;;;;;;;33.57;7.03;;;;;;;21.12;36.80;93292.59;5047124;28;20632;-76
2022/03/31 08:30:04;;;;;;;19.20;4.50;;;;;;;20.45;38.15;93301.63;5041488;28;20429;-76
2022/03/31 08:32:29;;;;;;;20.47;4.77;;;;;;;20.53;37.77;93296.75;5058098;28;20437;-76
2022/03/31 08:34:54;;;;;;;15.43;5.40;;;;;;;;;;5043286;28;20414;-76
2022/03/31 08:37:20;;;;;;;18.00;5.73;;;;;;;21.91;35.41;93296.16;5045986;28;20175;-76
2022/03/31 08:39:45;;;;;;;14.97;5.10;;;;;;;21.21;36.56;93330.72;5048426;28;20723;-77
2022/03/31 08:42:11;;;;;;;17.23;5.70;;;;;;;20.91;37.08;93286.06;5062856;28;20621;-76
2022/03/31 08:44:39;;;;;;;20.77;5.83;;;;;;;20.69;37.51;93310.59;5062974;28;20274;-76
2022/03/31 08:47:08;;;;;;;19.03;5.93;;;;;;;21.15;36.19;93253.94;5062206;28;20181;-76
2022/03/31 08:49:34;;;;;;;21.97;4.93;;;;;;;20.91;36.29;93299.34;5038767;28;20465;-76
2022/03/31 08:52:00;;;;;;;109.10;13.30;;;;;;;20.46;37.68;93241.28;5059210;28;20409;-76
2022/03/31 08:54:25;;;;;;;18.90;5.13;;;;;;;21.40;35.98;93301.38;5051127;28;20306;-76
2022/03/31 08:56:53;;;;;;;17.30;5.20;;;;;;;21.41;36.23;93331.44;5065775;28;20175;-76
2022/03/31 08:59:19;;;;;;;16.23;4.50;;;;;;;20.36;37.60;93295.38;5046031;28;20175;-76
2022/03/31 09:01:44;;;;;;;14.60;4.43;;;;;;;21.20;35.97;93299.09;5060854;28;20445;-77
2022/03/31 09:04:23;;;;;;;16.70;5.50;;;;;;;20.78;37.17;93255.69;5050438;28;20226;-77
2022/03/31 09:07:00;;;;;;;18.07;3.83;;;;;;;21.43;36.42;93273.38;5051310;28;20179;-77
2022/03/31 09:09:26;;;;;;;14.57;4.60;;;;;;;21.66;35.61;93268.19;5049097;28;20424;-77
2022/03/31 09:11:51;;;;;;;16.13;4.67;;;;;;;21.28;36.21;93271.00;5021145;28;20506;-76
2022/03/31 09:14:30;;;;;;;19.45;5.00;;;;;;;22.27;34.77;93277.56;5068055;27;1440907;-77
2022/03/31 09:16:56;;;;;;;17.70;5.10;;;;;;;22.09;34.92;93289.13;5098483;28;20186;-77
2022/03/31 09:19:22;;;;;;;16.70;5.10;;;;;;;22.00;35.32;93286.38;5095302;28;20488;-77
2022/03/31 09:22:00;;;;;;;8.57;2.93;;;;;;;21.78;35.40;93279.91;5097421;28;20169;-77
2022/03/31 09:24:28;;;;;;;14.63;3.70;;;;;;;21.83;35.78;93285.13;5095456;28;20428;-77
2022/03/31 09:26:56;;;;;;;18.97;5.23;;;;;;;21.54;36.32;93288.09;5097139;28;20449;-78
2022/03/31 09:29:24;;;;;;;14.40;3.43;;;;;;;20.69;37.67;93268.84;5092813;28;20418;-77
2022/03/31 09:31:53;;;;;;;18.63;4.80;;;;;;;21.20;37.16;93273.25;5088301;28;20412;-77
2022/03/31 09:34:20;;;;;;;9.30;5.47;;;;;;;21.32;36.57;93243.50;5090363;28;20477;-77
2022/03/31 09:36:53;;;;;;;20.60;5.80;;;;;;;21.25;37.08;93233.28;5095780;28;20432;-77
2022/03/31 09:39:20;;;;;;;15.33;3.30;;;;;;;20.69;37.99;93247.56;5101382;28;20427;-77
2022/03/31 09:41:50;;;;;;;4.77;2.87;;;;;;;21.18;37.15;93227.53;5102268;28;20427;-77
2022/03/31 09:44:23;;;;;;;12.10;3.43;;;;;;;20.92;37.23;93237.88;5096190;28;20439;-77
2022/03/31 09:46:49;;;;;;;12.33;3.30;;;;;;;21.14;37.39;93197.31;5095349;28;20480;-77
2022/03/31 09:49:17;;;;;;;16.73;4.13;;;;;;;20.84;37.82;93212.75;5100731;28;20520;-76
2022/03/31 09:51:44;;;;;;;7.90;3.53;;;;;;;21.57;36.94;93212.97;5096830;28;20497;-77
2022/03/31 09:54:11;;;;;;;10.43;3.10;;;;;;;21.09;37.75;93242.63;5091762;28;20447;-77
2022/03/31 09:56:40;;;;;;;18.83;5.10;;;;;;;21.77;36.73;93216.28;5101647;28;20930;-76
2022/03/31 09:59:11;;;;;;;14.30;3.97;;;;;;;21.91;36.03;93194.94;5101436;28;20442;-77
2022/03/31 10:01:38;;;;;;;17.13;4.77;;;;;;;20.72;37.77;93223.06;5086587;28;20427;-76
2022/03/31 10:04:10;;;;;;;18.67;3.73;;;;;;;21.73;36.57;93207.31;5081627;28;20431;-76
2022/03/31 10:06:37;;;;;;;18.73;6.13;;;;;;;21.58;36.54;93187.91;5084348;28;20463;-77
2022/03/31 10:09:05;;;;;;;32.20;7.50;;;;;;;21.82;36.09;93202.88;5079700;28;20455;-77
2022/03/31 10:11:33;;;;;;;17.20;3.60;;;;;;;22.11;35.24;93204.34;5080076;28;20456;-76
2022/03/31 10:14:24;;;;;;;19.87;4.20;;;;;;;21.84;35.86;93222.00;5080225;28;20487;-77
2022/03/31 10:16:56;;;;;;;26.83;6.20;;;;;;;22.50;34.71;93200.22;5080965;28;20413;-77
2022/03/31 10:19:35;;;;;;;23.13;4.60;;;;;;;21.54;36.38;93226.09;5079895;28;20517;-77
2022/03/31 10:22:10;;;;;;;15.17;5.47;;;;;;;22.19;35.15;93200.94;5084993;28;20508;-77
2022/03/31 10:24:42;;;;;;;17.67;7.00;;;;;;;22.82;33.91;93241.84;5093474;28;20661;-76
2022/03/31 10:27:25;;;;;;;21.60;5.03;;;;;;;22.70;34.02;93202.41;5072904;28;20451;-77
2022/03/31 10:29:51;;;;;;;13.30;4.33;;;;;;;22.46;34.85;93173.44;5078457;28;20471;-77
2022/03/31 10:32:24;;;;;;;23.70;6.77;;;;;;;23.01;34.00;93201.59;5085675;28;20486;-77
2022/03/31 10:34:53;;;;;;;18.27;5.97;;;;;;;22.59;34.45;93196.56;5084342;28;20194;-77
2022/03/31 10:37:38;;;;;;;12.90;5.73;;;;;;;22.58;34.96;93202.97;5088171;28;20429;-77
2022/03/31 10:40:08;;;;;;;18.47;4.90;;;;;;;23.05;33.85;93183.94;5083899;28;20468;-77
2022/03/31 10:42:34;;;;;;;16.50;5.67;;;;;;;23.55;33.45;93202.28;5077382;28;20430;-77
2022/03/31 10:45:05;;;;;;;12.63;4.30;;;;;;;23.73;33.16;93194.28;5074312;28;20428;-76
2022/03/31 10:47:33;;;;;;;13.97;3.93;;;;;;;22.01;35.58;93182.19;5087948;28;20494;-76
2022/03/31 10:49:58;;;;;;;17.17;4.50;;;;;;;24.16;32.59;93196.22;5084539;28;20523;-76
2022/03/31 10:52:24;;;;;;;16.77;5.47;;;;;;;23.82;33.02;93160.38;5074243;28;20491;-77
2022/03/31 10:54:51;;;;;;;25.10;7.90;;;;;;;23.65;33.00;93157.66;5074083;28;20185;-76
2022/03/31 10:57:18;;;;;;;17.43;5.00;;;;;;;24.45;31.92;93190.22;5087167;28;20182;-77
2022/03/31 10:59:47;;;;;;;15.30;5.13;;;;;;;23.55;33.27;93183.59;5087365;28;20420;-76
2022/03/31 11:02:23;;;;;;;16.03;4.67;;;;;;;22.19;35.43;93166.31;5086024;28;20419;-76
2022/03/31 11:04:54;;;;;;;15.63;5.40;;;;;;;23.34;34.14;93185.28;5087431;28;20430;-76
2022/03/31 11:07:24;;;;;;;14.43;4.60;;;;;;;23.11;34.26;93145.31;5069166;28;20455;-77
2022/03/31 11:10:13;;;;;;;19.20;4.20;;;;;;;23.67;33.32;93182.19;5072783;28;20797;-76
2022/03/31 11:12:40;;;;;;;17.40;4.27;;;;;;;23.10;34.02;93164.31;5087412;28;20480;-76
2022/03/31 11:15:09;;;;;;;18.67;5.20;;;;;;;22.20;35.55;93165.22;5084721;28;20407;-76
2022/03/31 11:17:37;;;;;;;11.70;5.00;;;;;;;22.92;34.53;93179.44;5066996;28;20426;-76
2022/03/31 11:20:13;;;;;;;12.37;4.67;;;;;;;23.82;33.44;93178.31;5083349;28;20526;-77
2022/03/31 11:22:47;;;;;;;21.93;5.50;;;;;;;23.16;33.76;93174.56;5085257;28;20868;-76
2022/03/31 11:25:13;;;;;;;27.20;5.70;;;;;;;22.54;34.81;93163.91;5083623;28;20448;-76
2022/03/31 11:27:40;;;;;;;12.23;2.63;;;;;;;21.44;36.93;93163.22;5065458;28;20520;-76
2022/03/31 11:30:24;;;;;;;18.43;4.43;;;;;;;21.93;36.58;93160.78;5079440;28;20445;-76
2022/03/31 11:32:56;;;;;;;9.27;3.83;;;;;;;21.58;38.83;93205.75;5077726;28;20459;-76
2022/03/31 11:35:26;;;;;;;13.30;4.43;;;;;;;20.60;41.59;93153.63;5086344;28;20427;-76
2022/03/31 11:37:54;;;;;;;24.43;5.20;;;;;;;21.24;41.43;93161.72;5084738;28;20435;-76
2022/03/31 11:40:25;;;;;;;9.93;4.23;;;;;;;20.54;41.49;93184.78;5081938;28;20445;-76
2022/03/31 11:42:54;;;;;;;16.70;4.33;;;;;;;20.79;41.17;93156.22;5066816;28;20439;-77